This demonstration page uses our WeatherBlox Daily Observations layout. Learn more.

38.89511, -77.03637

Hourly Observations for September 25, 2017

Temp ( °F °C ) Dew Point ( °F °C ) Humidity (%) Winds ( mph kmh ) Pressure ( in mb ) Visibility ( mi km ) Precip ( " mm )
12:52 am 00:52 Mostly Cloudy 75 23.9 68 20 79 79 NNW 7 11 30.03 1017 10 16.09344 0 0
1:52 am 01:52 Partly Cloudy 73 22.8 69 20.6 87 87 N 5 7 30 1016 10 16.09344 0 0
2:52 am 02:52 Mostly Clear 73 22.8 69 20.6 87 87 Calm 30 1016 10 16.09344 0 0
3:52 am 03:52 Mostly Clear 72 22.2 68 20 87 87 N 3 6 30 1016 10 16.09344 0 0
4:52 am 04:52 Mostly Clear 72 22.2 69 20.6 91 91 Calm 30 1016 10 16.09344 0 0
5:52 am 05:52 Mostly Clear 71 21.7 67 19.4 87 87 N 5 7 30 1016 10 16.09344 0 0
6:52 am 06:52 Partly Cloudy 72 22.2 68 20 87 87 Calm 30.03 1017 10 16.09344 0 0
7:52 am 07:52 Mostly Cloudy 73 22.8 69 20.6 87 87 Calm 30.03 1017 10 16.09344 0 0
8:52 am 08:52 Partly Cloudy 76 24.4 69 20.6 79 79 ENE 3 6 30.06 1018 10 16.09344 0 0
9:52 am 09:52 Partly Cloudy 80 26.7 68 20 67 67 Calm 30.06 1018 10 16.09344 0 0
10:52 am 10:52 Mostly Cloudy 84 28.9 67 19.4 57 57 Calm 30.06 1018 10 16.09344 0 0
11:52 am 11:52 Mostly Cloudy 86 30 67 19.4 53 53 Calm 30.03 1017 10 16.09344 0 0
12:52 pm 12:52 Mostly Cloudy 88 31.1 67 19.4 50 50 NE 7 11 30.03 1017 10 16.09344 0 0
1:52 pm 13:52 Mostly Cloudy 90 32.2 67 19.4 47 47 NNE 6 9 30 1016 10 16.09344 0 0
2:52 pm 14:52 Mostly Cloudy 91 32.8 67 19.4 45 45 NE 9 15 30 1016 10 16.09344 0 0
3:52 pm 15:52 Mostly Cloudy 90 32.2 67 19.4 47 47 E 3 6 29.97 1015 10 16.09344 0 0
4:52 pm 16:52 Mostly Cloudy 88 31.1 66 18.9 48 48 NE 8 13 29.97 1015 10 16.09344 0 0
5:52 pm 17:52 Mostly Cloudy 86 30 68 20 55 55 ESE 10 17 29.97 1015 10 16.09344 0 0
6:52 pm 18:52 Mostly Cloudy 84 28.9 69 20.6 61 61 E 7 11 29.97 1015 10 16.09344 0 0
7:52 pm 19:52 Mostly Cloudy 82 27.8 69 20.6 65 65 ESE 6 9 29.97 1015 10 16.09344 0 0
8:52 pm 20:52 Mostly Cloudy 80 26.7 70 21.1 71 71 ESE 7 11 29.97 1015 10 16.09344 0 0
9:52 pm 21:52 Mostly Cloudy 78 25.6 68 20 71 71 ESE 10 17 30 1016 10 16.09344 0 0
10:52 pm 22:52 Cloudy 77 25 67 19.4 71 71 ESE 5 7 30 1016 10 16.09344 0 0
11:52 pm 23:52 Mostly Cloudy 76 24.4 67 19.4 74 74 NE 8 13 30 1016 10 16.09344 0 0

Powered by AerisWeather